Time;durP1;ratioP1;P1;durP2;ratioP2;P2;SDS_P1;SDS_P2;PMS_P1;PMS_P2;Temp;Humidity;BMP_temperature;BMP_pressure;BME280_temperature;BME280_humidity;BME280_pressure;Samples;Min_cycle;Max_cycle;Signal;HPM_P1;HPM_P2
2024/04/24 00:01:27;;;;;;;4.03;2.70;;;3.30;99.30;;;;;;5416384;26;20007;-73
2024/04/24 00:03:52;;;;;;;3.83;2.50;;;3.20;99.40;;;;;;5382270;26;19996;-74
2024/04/24 00:06:18;;;;;;;5.43;3.38;;;3.20;99.60;;;;;;5412580;26;20490;-74
2024/04/24 00:08:46;;;;;;;5.10;2.85;;;3.20;99.40;;;;;;5413103;26;20072;-74
2024/04/24 00:11:17;;;;;;;6.22;2.42;;;3.20;99.60;;;;;;5410437;26;20114;-73
2024/04/24 00:13:43;;;;;;;4.63;2.75;;;3.10;99.70;;;;;;5382513;26;20053;-73
2024/04/24 00:16:08;;;;;;;4.22;2.50;;;3.10;99.80;;;;;;5383005;26;20454;-73
2024/04/24 00:18:34;;;;;;;4.75;2.85;;;3.10;99.80;;;;;;5413065;26;20014;-73
2024/04/24 00:21:00;;;;;;;4.63;2.58;;;3.00;99.90;;;;;;5382257;26;20331;-73
2024/04/24 00:23:25;;;;;;;5.18;2.78;;;3.00;99.90;;;;;;5383556;26;20003;-73
2024/04/24 00:25:54;;;;;;;6.32;3.03;;;3.10;99.90;;;;;;5413096;26;20011;-73
2024/04/24 00:28:20;;;;;;;3.47;2.83;;;2.90;99.90;;;;;;5414251;26;20069;-73
2024/04/24 00:30:46;;;;;;;4.93;3.05;;;2.80;99.90;;;;;;5413710;26;20011;-73
2024/04/24 00:33:11;;;;;;;4.43;2.90;;;2.80;99.90;;;;;;5409141;26;20010;-73
2024/04/24 00:35:37;;;;;;;5.90;3.25;;;2.80;99.90;;;;;;5383149;26;20463;-73
2024/04/24 00:38:03;;;;;;;5.38;3.15;;;2.70;99.90;;;;;;5412807;26;19996;-73
2024/04/24 00:40:29;;;;;;;4.10;2.42;;;2.70;99.90;;;;;;5414116;26;20455;-72
2024/04/24 00:42:54;;;;;;;3.13;2.60;;;2.70;99.90;;;;;;5412825;26;20458;-73
2024/04/24 00:45:21;;;;;;;5.53;2.92;;;2.70;99.90;;;;;;5413704;26;20007;-74
2024/04/24 00:47:48;;;;;;;6.10;2.90;;;2.70;99.90;;;;;;5413042;26;20424;-73
2024/04/24 00:50:15;;;;;;;2.92;2.60;;;2.70;99.90;;;;;;5414225;26;19999;-73
2024/04/24 00:52:42;;;;;;;3.25;2.72;;;2.60;99.90;;;;;;5414180;26;20010;-73
2024/04/24 00:55:08;;;;;;;8.13;3.35;;;2.60;99.90;;;;;;5382187;26;20010;-73
2024/04/24 00:57:34;;;;;;;4.45;3.10;;;2.60;99.90;;;;;;5414444;26;20460;-73
2024/04/24 01:00:00;;;;;;;6.13;2.90;;;2.50;99.90;;;;;;5413066;26;20022;-73
2024/04/24 01:02:27;;;;;;;4.07;2.70;;;2.50;99.90;;;;;;5382403;26;20459;-73
2024/04/24 01:04:52;;;;;;;5.93;3.53;;;2.40;99.90;;;;;;5408333;26;20004;-73
2024/04/24 01:07:18;;;;;;;6.15;2.95;;;2.40;99.90;;;;;;5413664;26;20459;-73
2024/04/24 01:09:44;;;;;;;5.15;3.20;;;2.40;99.90;;;;;;5372360;26;20036;-73
2024/04/24 01:12:09;;;;;;;5.95;3.45;;;2.40;99.90;;;;;;5411499;26;20031;-73
2024/04/24 01:14:35;;;;;;;6.68;3.60;;;2.40;99.90;;;;;;5406622;26;20010;-73
2024/04/24 01:17:04;;;;;;;4.60;3.20;;;2.40;99.90;;;;;;5380438;26;20928;-73
2024/04/24 01:19:46;;;;;;;5.73;2.90;;;2.40;99.90;;;;;;5380453;26;19996;-73
2024/04/24 01:22:24;;;;;;;6.80;3.28;;;2.40;99.90;;;;;;5338634;26;20000;-73
2024/04/24 01:25:21;;;;;;;6.20;3.55;;;2.30;99.90;;;;;;5412697;26;20014;-73
2024/04/24 01:27:47;;;;;;;5.65;3.10;;;2.30;99.90;;;;;;5381490;26;20035;-73
2024/04/24 01:30:13;;;;;;;6.25;4.60;;;2.30;99.90;;;;;;5414853;26;20000;-74
2024/04/24 01:32:39;;;;;;;7.78;3.42;;;2.30;99.90;;;;;;5382526;26;20524;-74
2024/04/24 01:35:05;;;;;;;7.72;3.78;;;2.30;99.90;;;;;;5381392;26;19996;-73
2024/04/24 01:37:31;;;;;;;5.90;3.83;;;2.30;99.90;;;;;;5381592;26;20014;-74
2024/04/24 01:39:57;;;;;;;6.68;4.00;;;2.40;99.90;;;;;;5382266;26;20491;-73
2024/04/24 01:42:22;;;;;;;5.82;3.53;;;2.30;99.90;;;;;;5382677;26;20014;-74
2024/04/24 01:44:48;;;;;;;5.72;3.85;;;2.40;99.90;;;;;;5412040;26;20043;-73
2024/04/24 01:47:13;;;;;;;7.68;3.88;;;2.50;99.90;;;;;;5413308;26;19999;-74
2024/04/24 01:49:39;;;;;;;5.35;3.65;;;2.50;99.90;;;;;;5383011;26;20015;-73
2024/04/24 01:52:05;;;;;;;6.80;3.78;;;2.60;99.90;;;;;;5412633;26;19996;-74
2024/04/24 01:54:30;;;;;;;7.60;3.85;;;2.60;99.90;;;;;;5381936;26;20014;-73
2024/04/24 01:56:56;;;;;;;5.80;4.00;;;2.70;99.90;;;;;;5410948;26;19999;-73
2024/04/24 01:59:22;;;;;;;7.15;3.45;;;2.70;99.90;;;;;;5414582;26;20000;-74
2024/04/24 02:01:49;;;;;;;5.18;3.90;;;2.80;99.90;;;;;;5380694;26;20009;-73
2024/04/24 02:04:14;;;;;;;8.77;3.83;;;2.80;99.90;;;;;;5413306;26;20461;-73
2024/04/24 02:06:40;;;;;;;8.48;3.72;;;2.80;99.90;;;;;;5382243;26;20027;-74
2024/04/24 02:09:06;;;;;;;4.82;3.75;;;2.90;99.90;;;;;;5412455;26;20004;-74
2024/04/24 02:11:31;;;;;;;4.68;2.92;;;2.90;99.90;;;;;;5414307;26;20010;-73
2024/04/24 02:13:57;;;;;;;6.30;3.63;;;3.00;99.90;;;;;;5360637;26;20041;-73
2024/04/24 02:16:23;;;;;;;6.38;3.70;;;3.00;99.90;;;;;;5403766;26;20018;-73
2024/04/24 02:18:48;;;;;;;6.43;3.95;;;3.10;99.90;;;;;;5396128;26;20015;-73
2024/04/24 02:21:14;;;;;;;6.03;3.55;;;3.20;99.90;;;;;;5413392;26;20014;-73
2024/04/24 02:23:40;;;;;;;4.57;3.65;;;3.30;99.90;;;;;;5413055;26;20003;-73
2024/04/24 02:26:07;;;;;;;6.68;4.38;;;3.20;99.90;;;;;;5411597;26;20027;-74
2024/04/24 02:28:35;;;;;;;5.10;3.40;;;3.20;99.90;;;;;;5412739;26;19996;-73
2024/04/24 02:31:01;;;;;;;8.75;4.60;;;3.20;99.90;;;;;;5381312;26;20010;-74
2024/04/24 02:33:27;;;;;;;5.25;4.00;;;3.20;99.90;;;;;;5413288;26;20003;-73
2024/04/24 02:35:52;;;;;;;7.13;4.22;;;3.20;99.90;;;;;;5411192;26;19999;-73
2024/04/24 02:38:18;;;;;;;6.32;4.32;;;3.10;99.90;;;;;;5412252;26;20046;-73
2024/04/24 02:40:44;;;;;;;6.95;4.45;;;3.00;99.90;;;;;;5412567;26;20028;-73
2024/04/24 02:43:10;;;;;;;5.43;3.83;;;3.00;99.90;;;;;;5412685;26;20004;-73
2024/04/24 02:45:35;;;;;;;6.18;3.80;;;2.90;99.90;;;;;;5412463;26;20343;-73
2024/04/24 02:48:01;;;;;;;5.05;3.78;;;2.90;99.90;;;;;;5411438;26;19999;-73
2024/04/24 02:50:27;;;;;;;6.20;3.70;;;2.80;99.90;;;;;;5381844;26;19995;-73
2024/04/24 02:52:53;;;;;;;7.07;4.00;;;2.80;99.90;;;;;;5411605;26;20003;-73
2024/04/24 02:55:19;;;;;;;7.05;4.20;;;2.80;99.90;;;;;;5412319;26;20012;-73
2024/04/24 02:57:45;;;;;;;4.75;3.45;;;2.70;99.90;;;;;;5411381;26;20008;-74
2024/04/24 03:00:11;;;;;;;7.13;4.53;;;2.70;99.90;;;;;;5413365;26;20019;-74
2024/04/24 03:02:37;;;;;;;5.20;4.25;;;2.70;99.90;;;;;;5389329;26;20031;-74
2024/04/24 03:05:03;;;;;;;6.18;3.80;;;2.70;99.90;;;;;;5378388;26;19995;-74
2024/04/24 03:07:29;;;;;;;7.25;4.32;;;2.60;99.90;;;;;;5396415;26;20010;-75
2024/04/24 03:09:55;;;;;;;6.68;3.85;;;2.50;99.90;;;;;;5384224;26;20072;-74
2024/04/24 03:12:21;;;;;;;9.20;3.97;;;2.50;99.90;;;;;;5387991;26;20467;-74
2024/04/24 03:14:48;;;;;;;6.60;4.05;;;2.40;99.90;;;;;;5414925;26;19995;-74
2024/04/24 03:17:14;;;;;;;6.18;4.50;;;2.30;99.90;;;;;;5416043;26;20093;-74
2024/04/24 03:19:40;;;;;;;7.82;4.32;;;2.20;99.90;;;;;;5373773;26;19996;-73
2024/04/24 03:22:06;;;;;;;14.55;4.80;;;2.10;99.90;;;;;;5404301;26;19991;-73
2024/04/24 03:24:32;;;;;;;5.38;4.40;;;2.00;99.90;;;;;;5415634;26;20008;-73
2024/04/24 03:26:58;;;;;;;7.30;4.43;;;1.90;99.90;;;;;;5414174;26;20471;-73
2024/04/24 03:29:24;;;;;;;6.70;4.78;;;1.80;99.90;;;;;;5385343;26;19999;-73
2024/04/24 03:31:49;;;;;;;6.57;4.82;;;1.70;99.90;;;;;;5383629;26;20011;-74
2024/04/24 03:34:15;;;;;;;8.15;5.63;;;1.70;99.90;;;;;;5384362;26;20122;-73
2024/04/24 03:36:43;;;;;;;6.90;5.22;;;1.60;99.90;;;;;;5416196;26;20011;-73
2024/04/24 03:39:09;;;;;;;8.38;5.80;;;1.60;99.90;;;;;;5415015;26;20010;-73
2024/04/24 03:41:35;;;;;;;9.15;5.97;;;1.60;99.90;;;;;;5416810;26;20000;-73
2024/04/24 03:44:01;;;;;;;9.90;6.68;;;1.60;99.90;;;;;;5413494;26;20213;-74
2024/04/24 03:46:27;;;;;;;8.43;5.90;;;1.60;99.90;;;;;;5416277;26;20023;-73
2024/04/24 03:48:52;;;;;;;9.07;6.05;;;1.60;99.90;;;;;;5383467;26;20003;-74
2024/04/24 03:51:18;;;;;;;8.25;5.78;;;1.60;99.90;;;;;;5416459;26;20479;-73
2024/04/24 03:53:44;;;;;;;8.63;5.22;;;1.60;99.90;;;;;;5382552;26;20015;-74
2024/04/24 03:56:09;;;;;;;7.28;5.45;;;1.50;99.90;;;;;;5384723;26;20086;-73
2024/04/24 03:58:35;;;;;;;10.73;6.43;;;;;;;;;;5415770;26;20442;-73
2024/04/24 04:01:01;;;;;;;9.98;6.55;;;1.40;99.90;;;;;;5415366;26;20412;-73
2024/04/24 04:03:27;;;;;;;8.80;6.18;;;1.40;99.90;;;;;;5414162;26;20008;-73
2024/04/24 04:05:52;;;;;;;8.85;6.32;;;1.30;99.90;;;;;;5382910;26;19999;-74
2024/04/24 04:08:21;;;;;;;13.07;6.32;;;1.30;99.90;;;;;;5415006;26;20093;-74
2024/04/24 04:10:46;;;;;;;10.27;6.45;;;1.40;99.90;;;;;;5415043;26;20083;-74
2024/04/24 04:13:12;;;;;;;9.27;6.00;;;1.40;99.90;;;;;;5420899;26;20003;-71
2024/04/24 04:15:39;;;;;;;10.90;6.15;;;1.50;99.90;;;;;;5415704;26;20072;-73
2024/04/24 04:18:05;;;;;;;9.82;6.55;;;1.50;99.90;;;;;;5377105;26;20028;-73
2024/04/24 04:20:30;;;;;;;8.85;6.28;;;1.60;99.90;;;;;;5415573;26;20411;-73
2024/04/24 04:23:00;;;;;;;11.95;6.95;;;1.60;99.90;;;;;;5412469;26;20429;-75
2024/04/24 04:25:27;;;;;;;10.73;6.70;;;1.70;99.90;;;;;;5383835;26;19999;-73
2024/04/24 04:27:53;;;;;;;9.77;6.20;;;1.70;99.90;;;;;;5382642;26;20455;-72
2024/04/24 04:30:19;;;;;;;9.32;6.40;;;1.70;99.90;;;;;;5415904;26;20077;-77
2024/04/24 04:32:45;;;;;;;8.57;6.03;;;1.70;99.90;;;;;;5413956;26;20428;-74
2024/04/24 04:35:10;;;;;;;11.68;7.25;;;1.70;99.90;;;;;;5404596;26;20080;-73
2024/04/24 04:37:36;;;;;;;12.60;7.25;;;1.70;99.90;;;;;;5386608;26;20023;-72
2024/04/24 04:40:03;;;;;;;11.55;7.15;;;1.60;99.90;;;;;;5352448;26;20102;-72
2024/04/24 04:42:29;;;;;;;8.90;6.38;;;1.60;99.90;;;;;;5413313;26;20007;-72
2024/04/24 04:44:55;;;;;;;9.82;6.30;;;1.60;99.90;;;;;;5406351;26;19996;-72
2024/04/24 04:47:20;;;;;;;11.73;7.13;;;1.50;99.90;;;;;;5414790;26;19999;-72
2024/04/24 04:49:46;;;;;;;11.68;7.75;;;1.50;99.90;;;;;;5398913;26;20081;-73
2024/04/24 04:52:12;;;;;;;11.13;7.40;;;1.50;99.90;;;;;;5407542;26;20078;-72
2024/04/24 04:54:37;;;;;;;13.93;8.20;;;1.40;99.90;;;;;;5403279;26;20010;-73
2024/04/24 04:57:03;;;;;;;13.65;8.85;;;1.40;99.90;;;;;;5409500;26;20011;-72
2024/04/24 04:59:29;;;;;;;12.50;7.95;;;1.40;99.90;;;;;;5410955;26;19996;-73
2024/04/24 05:01:54;;;;;;;11.13;7.45;;;1.30;99.90;;;;;;5377057;26;20072;-73
2024/04/24 05:04:20;;;;;;;12.57;7.72;;;1.40;99.90;;;;;;5411906;26;20015;-73
2024/04/24 05:06:46;;;;;;;11.05;7.55;;;1.30;99.90;;;;;;5351388;26;20474;-74
2024/04/24 05:09:11;;;;;;;11.75;8.05;;;1.40;99.90;;;;;;5407769;26;20118;-73
2024/04/24 05:11:37;;;;;;;12.52;8.02;;;1.30;99.90;;;;;;5403336;26;20012;-74
2024/04/24 05:14:02;;;;;;;15.07;9.23;;;1.40;99.90;;;;;;5381077;26;20524;-74
2024/04/24 05:16:28;;;;;;;11.68;8.23;;;1.50;99.90;;;;;;5376159;26;20043;-74
2024/04/24 05:18:54;;;;;;;11.07;7.65;;;1.60;99.90;;;;;;5409563;26;20027;-73
2024/04/24 05:21:20;;;;;;;15.85;8.30;;;1.80;99.90;;;;;;5405366;26;20015;-73
2024/04/24 05:23:46;;;;;;;11.10;6.63;;;1.90;99.90;;;;;;5404578;26;20083;-74
2024/04/24 05:29:06;;;;;;;11.85;7.80;;;2.30;99.90;;;;;;5384895;26;20011;-73
2024/04/24 05:31:33;;;;;;;10.55;7.05;;;2.60;99.90;;;;;;5380529;26;19999;-73
2024/04/24 05:33:59;;;;;;;10.82;6.53;;;2.80;99.90;;;;;;5366880;26;19999;-73
2024/04/24 05:36:24;;;;;;;8.77;5.32;;;2.90;99.90;;;;;;5402047;26;20019;-70
2024/04/24 05:38:50;;;;;;;8.32;5.40;;;3.00;99.90;;;;;;5411253;26;20015;-72
2024/04/24 05:41:15;;;;;;;9.18;5.28;;;3.10;99.90;;;;;;5404981;26;20059;-71
2024/04/24 05:43:41;;;;;;;10.32;4.57;;;3.30;99.90;;;;;;5411922;26;20507;-71
2024/04/24 05:46:07;;;;;;;7.15;4.68;;;3.50;99.90;;;;;;5402264;26;20039;-76
2024/04/24 05:48:33;;;;;;;7.38;5.07;;;3.60;99.90;;;;;;5407851;26;20012;-76
2024/04/24 05:50:58;;;;;;;5.45;4.57;;;3.80;99.90;;;;;;5402784;26;20073;-75
2024/04/24 05:53:24;;;;;;;7.15;4.75;;;4.00;99.90;;;;;;5417150;26;19995;-74
2024/04/24 05:55:51;;;;;;;7.20;4.40;;;4.20;99.90;;;;;;5407318;26;20007;-75
2024/04/24 05:58:17;;;;;;;8.32;5.20;;;4.30;99.90;;;;;;5360691;26;20407;-75
2024/04/24 06:00:42;;;;;;;6.75;4.35;;;4.50;99.90;;;;;;5378276;26;20035;-77
2024/04/24 06:03:09;;;;;;;8.05;4.75;;;4.60;99.90;;;;;;5412604;26;20083;-76
2024/04/24 06:05:35;;;;;;;7.97;4.97;;;4.70;99.90;;;;;;5404199;26;20008;-73
2024/04/24 06:08:00;;;;;;;6.25;4.20;;;4.80;99.90;;;;;;5405673;26;19996;-74
2024/04/24 06:10:26;;;;;;;8.38;4.47;;;4.90;99.90;;;;;;5380788;26;20512;-74
2024/04/24 06:12:52;;;;;;;7.43;4.97;;;5.10;99.90;;;;;;5410313;26;20006;-74
2024/04/24 06:15:18;;;;;;;8.88;4.78;;;5.20;99.90;;;;;;5410185;26;19995;-73
2024/04/24 06:17:43;;;;;;;6.40;4.82;;;5.40;99.90;;;;;;5410713;26;20006;-73
2024/04/24 06:20:15;;;;;;;8.00;4.45;;;5.50;99.90;;;;;;5412838;26;20014;-75
2024/04/24 06:22:41;;;;;;;7.07;4.47;;;5.50;99.90;;;;;;5403270;26;20066;-76
2024/04/24 06:25:07;;;;;;;7.50;4.63;;;5.70;99.90;;;;;;5362923;26;20011;-72
2024/04/24 06:27:33;;;;;;;8.35;4.03;;;5.80;99.90;;;;;;5383701;26;19995;-72
2024/04/24 06:29:59;;;;;;;4.38;3.75;;;6.00;99.90;;;;;;5412470;26;20013;-76
2024/04/24 06:32:24;;;;;;;9.40;4.63;;;6.10;99.90;;;;;;5407870;26;20000;-72
2024/04/24 06:34:50;;;;;;;5.47;3.85;;;6.50;99.90;;;;;;5401229;26;20000;-75
2024/04/24 06:37:15;;;;;;;8.98;4.50;;;6.90;99.90;;;;;;5398767;26;20000;-75
2024/04/24 06:39:42;;;;;;;5.70;4.50;;;7.30;99.90;;;;;;5406927;26;19992;-74
2024/04/24 06:42:08;;;;;;;7.47;4.78;;;7.60;99.90;;;;;;5378511;26;20011;-74
2024/04/24 06:44:35;;;;;;;7.00;5.15;;;7.90;99.60;;;;;;5384687;26;20022;-74
2024/04/24 06:47:01;;;;;;;7.38;5.50;;;8.00;99.30;;;;;;5414578;26;19995;-77
2024/04/24 06:49:27;;;;;;;7.38;5.40;;;8.10;99.00;;;;;;5355821;26;19995;-73
2024/04/24 06:51:54;;;;;;;11.82;5.75;;;8.20;98.80;;;;;;5380634;26;20003;-75
2024/04/24 06:54:20;;;;;;;8.75;5.57;;;8.20;98.10;;;;;;5423950;26;20014;-78
2024/04/24 06:56:45;;;;;;;8.40;5.30;;;8.00;98.30;;;;;;5425956;26;20003;-77
2024/04/24 06:59:11;;;;;;;8.48;5.63;;;7.90;98.70;;;;;;5394629;26;20081;-78
2024/04/24 07:01:37;;;;;;;7.72;5.10;;;7.90;98.50;;;;;;5415367;26;19999;-78
2024/04/24 07:04:02;;;;;;;7.97;5.47;;;7.90;98.90;;;;;;5354488;26;20076;-76
2024/04/24 07:06:28;;;;;;;7.07;6.18;;;7.90;98.70;;;;;;5416687;26;20020;-76
2024/04/24 07:08:55;;;;;;;8.30;5.47;;;7.80;98.70;;;;;;5414005;26;19999;-77
2024/04/24 07:11:20;;;;;;;9.68;6.10;;;7.80;99.00;;;;;;5384641;26;20014;-76
2024/04/24 07:13:48;;;;;;;8.93;6.22;;;7.80;98.60;;;;;;5421988;26;20458;-78
2024/04/24 07:16:15;;;;;;;7.55;5.72;;;7.80;98.20;;;;;;5384895;26;20003;-78
2024/04/24 07:18:43;;;;;;;9.00;6.07;;;7.80;97.80;;;;;;5384243;26;20010;-77
2024/04/24 07:21:15;;;;;;;17.20;7.82;;;7.70;97.70;;;;;;5415979;26;19995;-77
2024/04/24 07:23:40;;;;;;;10.30;6.68;;;7.70;97.80;;;;;;5374214;26;20019;-78
2024/04/24 07:26:06;;;;;;;9.88;7.43;;;7.60;98.10;;;;;;5410834;26;20084;-80
2024/04/24 07:28:32;;;;;;;10.20;7.30;;;7.70;97.90;;;;;;5414693;26;20018;-80
2024/04/24 07:30:58;;;;;;;9.10;6.90;;;7.50;97.90;;;;;;5384281;26;20013;-80
2024/04/24 07:33:24;;;;;;;12.32;8.55;;;7.30;98.50;;;;;;5384356;26;20004;-77
2024/04/24 07:35:49;;;;;;;11.63;8.70;;;7.20;98.80;;;;;;5404335;26;20003;-77
2024/04/24 07:38:15;;;;;;;11.15;8.70;;;7.10;99.90;;;;;;5413636;26;20535;-79
2024/04/24 07:40:41;;;;;;;11.95;9.25;;;6.90;99.90;;;;;;5415798;26;20438;-78
2024/04/24 07:43:13;;;;;;;10.48;8.85;;;6.60;99.90;;;;;;5382819;26;19999;-77
2024/04/24 07:45:41;;;;;;;10.18;8.65;;;6.40;99.90;;;;;;5383359;26;20339;-77
2024/04/24 07:48:07;;;;;;;16.17;8.45;;;6.30;99.90;;;;;;5413339;26;20069;-75
2024/04/24 07:50:32;;;;;;;13.27;9.20;;;6.20;99.90;;;;;;5414418;26;20007;-74
2024/04/24 07:52:58;;;;;;;10.75;8.02;;;6.20;99.90;;;;;;5379667;26;20000;-73
2024/04/24 07:55:25;;;;;;;11.40;8.30;;;6.10;99.90;;;;;;5383557;26;19999;-74
2024/04/24 07:57:51;;;;;;;11.55;8.85;;;6.10;99.90;;;;;;5413865;26;20493;-74
2024/04/24 08:00:16;;;;;;;15.85;9.20;;;6.10;99.90;;;;;;5414436;26;20003;-73
2024/04/24 08:02:42;;;;;;;16.58;9.82;;;6.10;99.90;;;;;;5413635;26;20003;-71
2024/04/24 08:05:08;;;;;;;13.68;8.93;;;6.20;99.90;;;;;;5383375;26;20008;-72
2024/04/24 08:07:35;;;;;;;11.38;8.02;;;6.20;99.90;;;;;;5368201;26;20001;-73
2024/04/24 08:10:00;;;;;;;9.02;7.68;;;6.30;99.90;;;;;;5378191;26;20356;-72
2024/04/24 08:12:26;;;;;;;11.77;8.70;;;6.40;99.90;;;;;;5343013;26;20004;-73
2024/04/24 08:14:52;;;;;;;14.55;8.80;;;6.40;99.90;;;;;;5359689;26;20000;-77
2024/04/24 08:17:18;;;;;;;14.88;9.10;;;6.50;99.90;;;;;;5377561;26;20521;-76
2024/04/24 08:19:45;;;;;;;12.10;8.88;;;6.50;99.90;;;;;;5377915;26;20007;-77
2024/04/24 08:22:13;;;;;;;12.63;8.15;;;6.50;99.90;;;;;;5345384;26;20001;-75
2024/04/24 08:24:38;;;;;;;10.80;8.15;;;6.70;99.90;;;;;;5347492;26;20371;-76
2024/04/24 08:27:05;;;;;;;14.15;9.88;;;6.80;99.90;;;;;;5381663;26;20080;-77
2024/04/24 08:29:31;;;;;;;13.23;8.88;;;7.00;99.90;;;;;;5362559;26;20005;-76
2024/04/24 08:31:57;;;;;;;9.75;7.70;;;7.20;99.90;;;;;;5371013;26;20492;-76
2024/04/24 08:34:23;;;;;;;9.95;7.18;;;7.30;99.90;;;;;;5378790;26;20004;-76
2024/04/24 08:36:48;;;;;;;14.45;7.95;;;7.40;99.90;;;;;;5360234;26;20471;-76
2024/04/24 08:39:14;;;;;;;12.30;7.85;;;7.50;99.90;;;;;;5378373;26;20018;-75
2024/04/24 08:41:44;;;;;;;8.32;6.82;;;7.50;99.90;;;;;;5348183;26;20542;-76
2024/04/24 08:44:14;;;;;;;10.90;7.82;;;7.50;99.90;;;;;;5347684;26;20028;-76
2024/04/24 08:46:43;;;;;;;9.93;6.53;;;7.60;99.90;;;;;;5377988;26;20389;-76
2024/04/24 08:49:09;;;;;;;8.73;7.25;;;7.60;99.90;;;;;;5346616;26;20068;-76
2024/04/24 08:51:38;;;;;;;8.45;6.80;;;7.60;99.90;;;;;;5376897;26;20001;-75
2024/04/24 08:54:09;;;;;;;12.27;7.72;;;7.60;99.90;;;;;;5377291;26;20085;-76
2024/04/24 08:56:39;;;;;;;11.57;7.60;;;7.70;99.90;;;;;;5348686;26;20014;-75
2024/04/24 08:59:17;;;;;;;10.43;6.78;;;7.80;99.90;;;;;;5377071;26;20019;-76
2024/04/24 09:01:49;;;;;;;9.38;6.75;;;7.90;99.90;;;;;;5378615;26;20008;-76
2024/04/24 09:04:17;;;;;;;10.13;7.00;;;8.00;99.90;;;;;;5378483;26;20015;-76
2024/04/24 09:06:44;;;;;;;10.40;7.30;;;8.00;99.90;;;;;;5378274;26;20486;-76
2024/04/24 09:09:10;;;;;;;12.07;7.50;;;8.00;99.90;;;;;;5390031;26;19999;-75
2024/04/24 09:11:36;;;;;;;9.85;6.68;;;8.00;99.90;;;;;;5382530;26;20000;-75
2024/04/24 09:14:02;;;;;;;10.43;7.28;;;7.90;99.90;;;;;;5381282;26;20877;-76
2024/04/24 09:16:34;;;;;;;9.95;6.97;;;8.00;99.30;;;;;;5414615;26;20015;-76
2024/04/24 09:19:00;;;;;;;10.23;7.28;;;7.90;98.60;;;;;;5413451;26;20000;-76
2024/04/24 09:21:28;;;;;;;11.20;7.53;;;7.80;98.60;;;;;;5415019;26;20032;-76
2024/04/24 09:23:54;;;;;;;12.88;7.72;;;7.70;98.40;;;;;;5405446;26;20018;-76
2024/04/24 09:26:21;;;;;;;11.63;8.05;;;7.60;98.60;;;;;;5412744;26;20451;-75
2024/04/24 09:28:46;;;;;;;15.05;7.40;;;7.50;98.70;;;;;;5412245;26;20000;-76
2024/04/24 09:31:12;;;;;;;10.77;7.55;;;7.40;99.20;;;;;;5382560;26;20014;-76
2024/04/24 09:33:39;;;;;;;10.85;7.68;;;7.30;99.90;;;;;;5382625;26;20092;-75
2024/04/24 09:36:05;;;;;;;11.38;7.63;;;7.20;99.90;;;;;;5381159;26;20014;-76
2024/04/24 09:38:32;;;;;;;11.50;8.35;;;7.10;99.90;;;;;;5413694;26;20003;-76
2024/04/24 09:40:59;;;;;;;10.82;7.85;;;6.90;99.90;;;;;;5412814;26;20048;-76
2024/04/24 09:43:26;;;;;;;12.95;7.88;;;6.80;99.90;;;;;;5413145;26;20015;-76
2024/04/24 09:45:54;;;;;;;11.38;8.43;;;6.70;99.90;;;;;;5412374;26;20003;-77
2024/04/24 09:48:22;;;;;;;10.40;7.97;;;6.50;99.90;;;;;;5409815;26;20115;-76
2024/04/24 09:50:51;;;;;;;14.05;8.02;;;6.50;99.90;;;;;;5412861;26;20009;-79
2024/04/24 09:53:19;;;;;;;11.23;8.23;;;6.40;99.90;;;;;;5371763;26;20172;-76
2024/04/24 09:56:18;;;;;;;10.63;8.68;;;6.40;99.90;;;;;;5416399;26;19999;-76
2024/04/24 09:58:50;;;;;;;11.37;8.00;;;6.30;99.90;;;;;;5397569;26;20003;-77
2024/04/24 10:01:16;;;;;;;9.65;8.15;;;6.10;99.90;;;;;;5383462;26;20324;-77
2024/04/24 10:03:46;;;;;;;14.27;9.45;;;6.00;99.90;;;;;;5339567;26;20068;-78
2024/04/24 10:06:18;;;;;;;9.38;7.93;;;6.00;99.90;;;;;;5334171;26;20060;-78
2024/04/24 10:08:46;;;;;;;12.00;8.75;;;6.00;99.90;;;;;;5339087;26;19997;-78
2024/04/24 10:11:14;;;;;;;13.63;9.15;;;6.10;99.90;;;;;;5340351;26;19996;-77
2024/04/24 10:13:43;;;;;;;13.45;8.05;;;6.10;99.90;;;;;;5340080;26;20514;-79
2024/04/24 10:16:09;;;;;;;14.82;9.35;;;6.20;99.90;;;;;;5339128;26;20637;-78
2024/04/24 10:18:36;;;;;;;12.88;8.70;;;6.30;99.90;;;;;;5339833;26;20489;-78
2024/04/24 10:21:04;;;;;;;15.43;9.70;;;6.40;99.90;;;;;;5335661;26;20298;-77
2024/04/24 10:23:30;;;;;;;11.60;8.88;;;6.50;99.90;;;;;;5265942;27;20002;-78
2024/04/24 10:25:56;;;;;;;11.73;9.32;;;6.60;99.90;;;;;;5270345;27;20006;-77
2024/04/24 10:28:24;;;;;;;11.93;8.75;;;6.60;99.90;;;;;;5269971;27;20014;-81
2024/04/24 10:30:52;;;;;;;13.30;8.75;;;6.70;99.90;;;;;;5270885;27;20034;-77
2024/04/24 10:33:19;;;;;;;10.63;8.95;;;6.80;99.90;;;;;;5228566;27;20015;-76
2024/04/24 10:35:44;;;;;;;15.90;10.30;;;6.90;99.90;;;;;;5269615;27;20014;-75
2024/04/24 10:38:13;;;;;;;12.63;8.68;;;6.80;99.90;;;;;;5270903;27;20003;-76
2024/04/24 10:40:39;;;;;;;12.60;9.00;;;6.80;99.90;;;;;;5270514;27;20536;-77
2024/04/24 10:43:06;;;;;;;10.63;8.75;;;6.80;99.90;;;;;;5240219;27;19995;-76
2024/04/24 10:45:38;;;;;;;11.05;8.07;;;6.70;99.90;;;;;;5272535;27;19999;-77
2024/04/24 10:48:04;;;;;;;12.68;8.18;;;6.60;99.90;;;;;;5272171;27;20002;-76
2024/04/24 10:50:30;;;;;;;9.07;7.57;;;6.50;99.90;;;;;;5288388;27;19999;-76
2024/04/24 10:52:57;;;;;;;12.38;8.38;;;6.50;99.90;;;;;;5275585;27;20457;-80
2024/04/24 10:55:24;;;;;;;11.32;8.68;;;6.40;99.90;;;;;;5242502;27;20006;-76
2024/04/24 10:57:52;;;;;;;12.65;8.48;;;6.50;99.90;;;;;;5268980;27;20017;-75
2024/04/24 11:00:20;;;;;;;8.48;5.93;;;6.60;99.90;;;;;;5291874;26;20011;-77
2024/04/24 11:02:49;;;;;;;5.95;5.07;;;6.60;99.90;;;;;;5375237;26;19996;-76
2024/04/24 11:05:18;;;;;;;4.93;4.30;;;6.70;99.90;;;;;;5345958;26;20444;-77
2024/04/24 11:07:55;;;;;;;5.40;4.13;;;6.60;99.90;;;;;;5390691;26;19999;-78
2024/04/24 11:10:21;;;;;;;4.45;4.05;;;6.70;99.90;;;;;;5404509;26;20014;-77
2024/04/24 11:12:46;;;;;;;3.83;3.53;;;6.70;99.90;;;;;;5380376;26;20011;-74
2024/04/24 11:15:38;;;;;;;4.55;4.15;;;6.80;99.90;;;;;;5411968;26;20001;-75
2024/04/24 11:18:04;;;;;;;4.25;3.85;;;6.80;99.90;;;;;;5399701;26;20000;-75
2024/04/24 11:20:34;;;;;;;5.50;3.63;;;6.70;99.90;;;;;;5411288;26;20003;-75
2024/04/24 11:23:08;;;;;;;4.07;3.60;;;6.60;99.90;;;;;;5374072;26;20470;-75
2024/04/24 11:25:34;;;;;;;4.45;3.75;;;6.60;99.90;;;;;;5401999;26;20089;-75
2024/04/24 11:28:00;;;;;;;4.03;3.60;;;6.50;99.90;;;;;;5379941;26;20003;-75
2024/04/24 11:30:26;;;;;;;3.90;3.53;;;6.50;99.90;;;;;;5415167;26;20093;-74
2024/04/24 11:32:53;;;;;;;5.13;3.35;;;6.50;99.90;;;;;;5413909;26;20018;-76
2024/04/24 11:35:21;;;;;;;6.32;3.63;;;6.60;99.90;;;;;;5414812;26;20279;-75
2024/04/24 11:37:48;;;;;;;4.07;3.67;;;6.80;99.90;;;;;;5378617;26;20028;-75
2024/04/24 11:40:15;;;;;;;3.65;3.35;;;6.90;99.90;;;;;;5414757;26;20035;-75
2024/04/24 11:42:42;;;;;;;4.22;3.40;;;7.10;99.90;;;;;;5377489;26;20015;-76
2024/04/24 11:45:08;;;;;;;4.30;3.90;;;7.40;99.90;;;;;;5382149;26;19999;-75
2024/04/24 11:47:34;;;;;;;3.97;3.58;;;7.70;99.90;;;;;;5383013;26;20031;-75
2024/04/24 11:49:59;;;;;;;3.70;3.20;;;7.80;99.90;;;;;;5414503;26;20007;-75
2024/04/24 11:52:26;;;;;;;5.68;3.30;;;7.90;99.90;;;;;;5414801;26;20014;-75
2024/04/24 11:54:52;;;;;;;4.80;3.10;;;8.00;99.90;;;;;;5413525;26;20039;-74
2024/04/24 11:57:19;;;;;;;7.00;4.57;;;8.20;99.90;;;;;;5414530;26;20011;-75
2024/04/24 11:59:47;;;;;;;3.15;2.85;;;8.30;99.90;;;;;;5413299;26;20072;-75
2024/04/24 12:02:17;;;;;;;3.30;3.00;;;8.30;99.90;;;;;;5383073;26;20043;-74
2024/04/24 12:04:45;;;;;;;3.88;3.17;;;8.30;99.90;;;;;;5415008;26;20012;-74
2024/04/24 12:07:11;;;;;;;4.03;2.85;;;8.40;99.90;;;;;;5413772;26;20328;-74
2024/04/24 12:09:39;;;;;;;3.55;2.60;;;8.40;99.90;;;;;;5371445;26;20015;-73
2024/04/24 12:12:07;;;;;;;3.92;2.88;;;8.50;99.90;;;;;;5409866;26;20007;-74
2024/04/24 12:14:34;;;;;;;3.85;3.15;;;8.50;99.90;;;;;;5362004;26;19999;-74
2024/04/24 12:17:00;;;;;;;3.97;2.88;;;8.50;99.90;;;;;;5412913;26;19999;-74
2024/04/24 12:19:28;;;;;;;4.45;2.70;;;8.60;99.90;;;;;;5376963;26;20001;-73
2024/04/24 12:21:54;;;;;;;3.47;2.70;;;8.80;99.90;;;;;;5405873;26;20003;-75
2024/04/24 12:24:22;;;;;;;3.92;3.33;;;9.00;99.90;;;;;;5378809;26;20072;-75
2024/04/24 12:26:49;;;;;;;3.53;3.05;;;9.20;99.90;;;;;;5413598;26;20007;-75
2024/04/24 12:29:14;;;;;;;3.42;2.78;;;9.30;99.70;;;;;;5373661;26;20007;-75
2024/04/24 12:31:42;;;;;;;3.97;2.58;;;9.60;99.50;;;;;;5404324;26;20474;-75
2024/04/24 12:34:11;;;;;;;4.63;3.03;;;9.80;99.40;;;;;;5379882;26;20073;-76
2024/04/24 12:36:37;;;;;;;3.47;2.75;;;10.10;99.10;;;;;;5382761;26;20000;-76
2024/04/24 12:39:08;;;;;;;4.30;2.47;;;10.30;98.90;;;;;;5412068;26;20366;-77
2024/04/24 12:41:35;;;;;;;7.15;2.80;;;10.70;99.90;;;;;;5414795;26;20003;-75
2024/04/24 12:44:07;;;;;;;2.45;2.13;;;11.20;97.00;;;;;;5413177;26;20007;-75
2024/04/24 12:46:32;;;;;;;3.45;2.65;;;11.40;96.60;;;;;;5414333;26;20007;-75
2024/04/24 12:49:01;;;;;;;3.83;2.70;;;11.60;96.30;;;;;;5373620;26;20032;-74
2024/04/24 12:51:27;;;;;;;3.55;2.65;;;12.10;95.40;;;;;;5409389;26;20064;-75
2024/04/24 12:53:52;;;;;;;3.92;2.67;;;12.20;94.50;;;;;;5381392;26;20404;-74